sensor_id;sensor_type;location;lat;lon;timestamp;P1;durP1;ratioP1;P2;durP2;ratioP2
9809;SDS011;4944;52.514;13.192;2022-12-18T00:00:46;20.07;;;11.00;;
9809;SDS011;4944;52.514;13.192;2022-12-18T00:03:13;23.10;;;11.97;;
9809;SDS011;4944;52.514;13.192;2022-12-18T00:05:45;22.07;;;10.53;;
9809;SDS011;4944;52.514;13.192;2022-12-18T00:08:13;21.67;;;12.63;;
9809;SDS011;4944;52.514;13.192;2022-12-18T00:10:42;20.23;;;11.83;;
9809;SDS011;4944;52.514;13.192;2022-12-18T00:13:09;21.60;;;11.10;;
9809;SDS011;4944;52.514;13.192;2022-12-18T00:15:36;22.53;;;11.87;;
9809;SDS011;4944;52.514;13.192;2022-12-18T00:18:04;22.53;;;12.17;;
9809;SDS011;4944;52.514;13.192;2022-12-18T00:20:35;25.13;;;13.03;;
9809;SDS011;4944;52.514;13.192;2022-12-18T00:23:03;21.73;;;12.03;;
9809;SDS011;4944;52.514;13.192;2022-12-18T00:25:31;19.37;;;11.27;;
9809;SDS011;4944;52.514;13.192;2022-12-18T00:28:00;25.70;;;11.83;;
9809;SDS011;4944;52.514;13.192;2022-12-18T00:30:27;19.07;;;11.20;;
9809;SDS011;4944;52.514;13.192;2022-12-18T00:32:54;20.33;;;11.43;;
9809;SDS011;4944;52.514;13.192;2022-12-18T00:35:21;18.50;;;11.50;;
9809;SDS011;4944;52.514;13.192;2022-12-18T00:37:48;23.57;;;12.63;;
9809;SDS011;4944;52.514;13.192;2022-12-18T00:40:15;23.20;;;12.43;;
9809;SDS011;4944;52.514;13.192;2022-12-18T00:42:42;23.30;;;12.47;;
9809;SDS011;4944;52.514;13.192;2022-12-18T00:45:27;23.27;;;12.17;;
9809;SDS011;4944;52.514;13.192;2022-12-18T00:47:55;22.13;;;12.27;;
9809;SDS011;4944;52.514;13.192;2022-12-18T00:50:23;23.73;;;12.80;;
9809;SDS011;4944;52.514;13.192;2022-12-18T00:52:50;23.73;;;12.20;;
9809;SDS011;4944;52.514;13.192;2022-12-18T00:55:17;20.23;;;11.30;;
9809;SDS011;4944;52.514;13.192;2022-12-18T00:57:44;25.27;;;11.50;;
9809;SDS011;4944;52.514;13.192;2022-12-18T01:00:12;22.50;;;12.10;;
9809;SDS011;4944;52.514;13.192;2022-12-18T01:02:42;23.67;;;11.57;;
9809;SDS011;4944;52.514;13.192;2022-12-18T01:05:10;27.40;;;13.07;;
9809;SDS011;4944;52.514;13.192;2022-12-18T01:07:38;25.17;;;12.50;;
9809;SDS011;4944;52.514;13.192;2022-12-18T01:10:05;22.07;;;11.90;;
9809;SDS011;4944;52.514;13.192;2022-12-18T01:12:33;25.70;;;12.70;;
9809;SDS011;4944;52.514;13.192;2022-12-18T01:15:00;23.40;;;12.10;;
9809;SDS011;4944;52.514;13.192;2022-12-18T01:17:27;24.93;;;12.67;;
9809;SDS011;4944;52.514;13.192;2022-12-18T01:19:56;22.30;;;11.17;;
9809;SDS011;4944;52.514;13.192;2022-12-18T01:22:22;22.60;;;11.63;;
9809;SDS011;4944;52.514;13.192;2022-12-18T01:24:49;21.70;;;12.23;;
9809;SDS011;4944;52.514;13.192;2022-12-18T01:27:16;21.80;;;11.27;;
9809;SDS011;4944;52.514;13.192;2022-12-18T01:29:43;22.30;;;11.23;;
9809;SDS011;4944;52.514;13.192;2022-12-18T01:32:10;22.57;;;11.13;;
9809;SDS011;4944;52.514;13.192;2022-12-18T01:34:37;21.20;;;10.93;;
9809;SDS011;4944;52.514;13.192;2022-12-18T01:37:06;19.97;;;11.17;;
9809;SDS011;4944;52.514;13.192;2022-12-18T01:39:33;22.47;;;11.53;;
9809;SDS011;4944;52.514;13.192;2022-12-18T01:42:00;26.63;;;11.90;;
9809;SDS011;4944;52.514;13.192;2022-12-18T01:47:26;21.13;;;11.17;;
9809;SDS011;4944;52.514;13.192;2022-12-18T01:49:56;25.33;;;12.03;;
9809;SDS011;4944;52.514;13.192;2022-12-18T01:52:28;23.07;;;11.20;;
9809;SDS011;4944;52.514;13.192;2022-12-18T01:54:58;23.20;;;11.50;;
9809;SDS011;4944;52.514;13.192;2022-12-18T01:57:27;25.43;;;11.87;;
9809;SDS011;4944;52.514;13.192;2022-12-18T01:59:57;20.87;;;11.57;;
9809;SDS011;4944;52.514;13.192;2022-12-18T02:02:27;23.10;;;11.17;;
9809;SDS011;4944;52.514;13.192;2022-12-18T02:04:54;24.13;;;11.93;;
9809;SDS011;4944;52.514;13.192;2022-12-18T02:07:23;20.70;;;11.03;;
9809;SDS011;4944;52.514;13.192;2022-12-18T02:09:59;21.70;;;10.40;;
9809;SDS011;4944;52.514;13.192;2022-12-18T02:12:30;21.40;;;11.43;;
9809;SDS011;4944;52.514;13.192;2022-12-18T02:15:09;22.40;;;11.37;;
9809;SDS011;4944;52.514;13.192;2022-12-18T02:17:42;17.63;;;10.23;;
9809;SDS011;4944;52.514;13.192;2022-12-18T02:20:15;23.23;;;11.63;;
9809;SDS011;4944;52.514;13.192;2022-12-18T02:22:53;23.30;;;11.10;;
9809;SDS011;4944;52.514;13.192;2022-12-18T02:25:35;22.80;;;11.37;;
9809;SDS011;4944;52.514;13.192;2022-12-18T02:28:11;20.33;;;10.67;;
9809;SDS011;4944;52.514;13.192;2022-12-18T02:30:42;21.10;;;10.60;;
9809;SDS011;4944;52.514;13.192;2022-12-18T02:33:10;21.47;;;11.20;;
9809;SDS011;4944;52.514;13.192;2022-12-18T02:35:39;21.27;;;11.33;;
9809;SDS011;4944;52.514;13.192;2022-12-18T02:38:07;22.57;;;11.50;;
9809;SDS011;4944;52.514;13.192;2022-12-18T02:40:35;25.67;;;12.10;;
9809;SDS011;4944;52.514;13.192;2022-12-18T02:43:06;20.97;;;10.93;;
9809;SDS011;4944;52.514;13.192;2022-12-18T02:45:35;20.77;;;10.63;;
9809;SDS011;4944;52.514;13.192;2022-12-18T02:48:07;21.57;;;11.53;;
9809;SDS011;4944;52.514;13.192;2022-12-18T02:50:34;20.47;;;10.50;;
9809;SDS011;4944;52.514;13.192;2022-12-18T02:53:09;24.43;;;10.90;;
9809;SDS011;4944;52.514;13.192;2022-12-18T02:55:44;22.43;;;10.97;;
9809;SDS011;4944;52.514;13.192;2022-12-18T02:58:20;23.87;;;10.87;;
9809;SDS011;4944;52.514;13.192;2022-12-18T03:00:56;21.10;;;10.70;;
9809;SDS011;4944;52.514;13.192;2022-12-18T03:03:28;22.33;;;10.87;;
9809;SDS011;4944;52.514;13.192;2022-12-18T03:06:00;23.70;;;10.93;;
9809;SDS011;4944;52.514;13.192;2022-12-18T03:08:31;21.03;;;11.10;;
9809;SDS011;4944;52.514;13.192;2022-12-18T03:11:04;23.57;;;11.17;;
9809;SDS011;4944;52.514;13.192;2022-12-18T03:13:34;25.70;;;11.60;;
9809;SDS011;4944;52.514;13.192;2022-12-18T03:16:07;24.10;;;11.20;;
9809;SDS011;4944;52.514;13.192;2022-12-18T03:18:37;23.77;;;12.10;;
9809;SDS011;4944;52.514;13.192;2022-12-18T03:21:09;21.03;;;11.23;;
9809;SDS011;4944;52.514;13.192;2022-12-18T03:23:40;23.77;;;11.53;;
9809;SDS011;4944;52.514;13.192;2022-12-18T03:26:11;22.47;;;10.13;;
9809;SDS011;4944;52.514;13.192;2022-12-18T03:28:42;20.97;;;10.27;;
9809;SDS011;4944;52.514;13.192;2022-12-18T03:31:14;20.43;;;9.70;;
9809;SDS011;4944;52.514;13.192;2022-12-18T03:33:43;20.90;;;10.13;;
9809;SDS011;4944;52.514;13.192;2022-12-18T03:36:16;20.57;;;10.77;;
9809;SDS011;4944;52.514;13.192;2022-12-18T03:38:44;19.43;;;10.23;;
9809;SDS011;4944;52.514;13.192;2022-12-18T03:41:13;24.27;;;10.83;;
9809;SDS011;4944;52.514;13.192;2022-12-18T03:43:46;21.43;;;10.97;;
9809;SDS011;4944;52.514;13.192;2022-12-18T03:46:20;18.70;;;10.40;;
9809;SDS011;4944;52.514;13.192;2022-12-18T03:48:56;23.93;;;11.27;;
9809;SDS011;4944;52.514;13.192;2022-12-18T03:51:29;20.80;;;10.63;;
9809;SDS011;4944;52.514;13.192;2022-12-18T03:54:02;19.57;;;10.27;;
9809;SDS011;4944;52.514;13.192;2022-12-18T03:56:31;16.13;;;9.17;;
9809;SDS011;4944;52.514;13.192;2022-12-18T03:59:06;20.77;;;10.63;;
9809;SDS011;4944;52.514;13.192;2022-12-18T04:01:38;23.80;;;11.83;;
9809;SDS011;4944;52.514;13.192;2022-12-18T04:04:08;22.00;;;11.30;;
9809;SDS011;4944;52.514;13.192;2022-12-18T04:06:37;22.90;;;12.00;;
9809;SDS011;4944;52.514;13.192;2022-12-18T04:09:06;22.73;;;11.97;;
9809;SDS011;4944;52.514;13.192;2022-12-18T04:11:33;20.87;;;11.20;;
9809;SDS011;4944;52.514;13.192;2022-12-18T04:14:00;26.37;;;12.87;;
9809;SDS011;4944;52.514;13.192;2022-12-18T04:16:27;22.93;;;11.83;;
9809;SDS011;4944;52.514;13.192;2022-12-18T04:18:55;26.47;;;12.63;;
9809;SDS011;4944;52.514;13.192;2022-12-18T04:21:22;24.67;;;12.10;;
9809;SDS011;4944;52.514;13.192;2022-12-18T04:23:49;22.93;;;12.77;;
9809;SDS011;4944;52.514;13.192;2022-12-18T04:26:16;25.13;;;12.67;;
9809;SDS011;4944;52.514;13.192;2022-12-18T04:28:43;23.27;;;12.60;;
9809;SDS011;4944;52.514;13.192;2022-12-18T04:31:09;27.53;;;13.07;;
9809;SDS011;4944;52.514;13.192;2022-12-18T04:33:36;25.77;;;13.30;;
9809;SDS011;4944;52.514;13.192;2022-12-18T04:36:05;25.80;;;12.20;;
9809;SDS011;4944;52.514;13.192;2022-12-18T04:38:32;27.70;;;13.67;;
9809;SDS011;4944;52.514;13.192;2022-12-18T04:40:59;26.90;;;13.17;;
9809;SDS011;4944;52.514;13.192;2022-12-18T04:43:26;28.57;;;13.63;;
9809;SDS011;4944;52.514;13.192;2022-12-18T04:45:53;28.47;;;13.80;;
9809;SDS011;4944;52.514;13.192;2022-12-18T04:48:26;25.10;;;13.13;;
9809;SDS011;4944;52.514;13.192;2022-12-18T04:50:53;30.03;;;14.00;;
9809;SDS011;4944;52.514;13.192;2022-12-18T04:53:22;25.20;;;13.47;;
9809;SDS011;4944;52.514;13.192;2022-12-18T04:55:48;27.60;;;12.87;;
9809;SDS011;4944;52.514;13.192;2022-12-18T04:58:15;23.63;;;12.37;;
9809;SDS011;4944;52.514;13.192;2022-12-18T05:00:42;27.37;;;14.23;;
9809;SDS011;4944;52.514;13.192;2022-12-18T05:03:09;27.23;;;13.00;;
9809;SDS011;4944;52.514;13.192;2022-12-18T05:05:36;25.70;;;13.33;;
9809;SDS011;4944;52.514;13.192;2022-12-18T05:08:03;28.57;;;13.30;;
9809;SDS011;4944;52.514;13.192;2022-12-18T05:10:32;28.17;;;14.17;;
9809;SDS011;4944;52.514;13.192;2022-12-18T05:12:59;28.30;;;13.70;;
9809;SDS011;4944;52.514;13.192;2022-12-18T05:15:26;28.90;;;13.47;;
9809;SDS011;4944;52.514;13.192;2022-12-18T05:17:55;30.30;;;13.53;;
9809;SDS011;4944;52.514;13.192;2022-12-18T05:20:22;26.03;;;12.77;;
9809;SDS011;4944;52.514;13.192;2022-12-18T05:22:49;23.00;;;11.87;;
9809;SDS011;4944;52.514;13.192;2022-12-18T05:25:16;23.07;;;12.13;;
9809;SDS011;4944;52.514;13.192;2022-12-18T05:27:45;28.47;;;12.93;;
9809;SDS011;4944;52.514;13.192;2022-12-18T05:30:13;23.87;;;12.67;;
9809;SDS011;4944;52.514;13.192;2022-12-18T05:32:41;21.00;;;11.77;;
9809;SDS011;4944;52.514;13.192;2022-12-18T05:35:08;22.83;;;11.70;;
9809;SDS011;4944;52.514;13.192;2022-12-18T05:37:37;24.37;;;11.67;;
9809;SDS011;4944;52.514;13.192;2022-12-18T05:40:05;22.80;;;12.00;;
9809;SDS011;4944;52.514;13.192;2022-12-18T05:42:32;22.23;;;12.03;;
9809;SDS011;4944;52.514;13.192;2022-12-18T05:45:01;23.00;;;11.33;;
9809;SDS011;4944;52.514;13.192;2022-12-18T05:47:28;24.60;;;12.70;;
9809;SDS011;4944;52.514;13.192;2022-12-18T05:49:55;24.37;;;12.43;;
9809;SDS011;4944;52.514;13.192;2022-12-18T05:52:22;26.27;;;12.83;;
9809;SDS011;4944;52.514;13.192;2022-12-18T05:54:49;27.53;;;13.40;;
9809;SDS011;4944;52.514;13.192;2022-12-18T05:57:16;24.50;;;13.33;;
9809;SDS011;4944;52.514;13.192;2022-12-18T05:59:43;24.60;;;12.93;;
9809;SDS011;4944;52.514;13.192;2022-12-18T06:02:11;23.60;;;12.27;;
9809;SDS011;4944;52.514;13.192;2022-12-18T06:04:38;24.90;;;12.90;;
9809;SDS011;4944;52.514;13.192;2022-12-18T06:07:05;25.50;;;12.97;;
9809;SDS011;4944;52.514;13.192;2022-12-18T06:09:32;24.67;;;12.73;;
9809;SDS011;4944;52.514;13.192;2022-12-18T06:11:59;21.27;;;11.30;;
9809;SDS011;4944;52.514;13.192;2022-12-18T06:14:26;22.00;;;11.17;;
9809;SDS011;4944;52.514;13.192;2022-12-18T06:16:53;22.30;;;11.90;;
9809;SDS011;4944;52.514;13.192;2022-12-18T06:19:21;20.13;;;11.00;;
9809;SDS011;4944;52.514;13.192;2022-12-18T06:21:49;25.30;;;12.20;;
9809;SDS011;4944;52.514;13.192;2022-12-18T06:24:16;25.13;;;13.73;;
9809;SDS011;4944;52.514;13.192;2022-12-18T06:26:43;21.93;;;12.27;;
9809;SDS011;4944;52.514;13.192;2022-12-18T06:29:10;22.33;;;12.60;;
9809;SDS011;4944;52.514;13.192;2022-12-18T06:31:37;20.97;;;11.87;;
9809;SDS011;4944;52.514;13.192;2022-12-18T06:34:04;22.63;;;10.80;;
9809;SDS011;4944;52.514;13.192;2022-12-18T06:36:32;19.67;;;10.77;;
9809;SDS011;4944;52.514;13.192;2022-12-18T06:38:59;19.50;;;11.00;;
9809;SDS011;4944;52.514;13.192;2022-12-18T06:41:26;17.03;;;10.27;;
9809;SDS011;4944;52.514;13.192;2022-12-18T06:43:53;20.30;;;10.97;;
9809;SDS011;4944;52.514;13.192;2022-12-18T06:46:20;15.10;;;9.83;;
9809;SDS011;4944;52.514;13.192;2022-12-18T06:48:47;18.47;;;10.40;;
9809;SDS011;4944;52.514;13.192;2022-12-18T06:51:16;17.50;;;9.87;;
9809;SDS011;4944;52.514;13.192;2022-12-18T06:53:45;14.60;;;8.97;;
9809;SDS011;4944;52.514;13.192;2022-12-18T06:56:12;14.17;;;9.03;;
9809;SDS011;4944;52.514;13.192;2022-12-18T06:58:39;17.20;;;9.47;;
9809;SDS011;4944;52.514;13.192;2022-12-18T07:01:07;15.13;;;9.10;;
9809;SDS011;4944;52.514;13.192;2022-12-18T07:03:36;14.40;;;9.47;;
9809;SDS011;4944;52.514;13.192;2022-12-18T07:06:03;15.50;;;9.83;;
9809;SDS011;4944;52.514;13.192;2022-12-18T07:08:31;15.03;;;9.33;;
9809;SDS011;4944;52.514;13.192;2022-12-18T07:11:02;13.97;;;8.90;;
9809;SDS011;4944;52.514;13.192;2022-12-18T07:13:29;16.77;;;9.67;;
9809;SDS011;4944;52.514;13.192;2022-12-18T07:16:02;16.20;;;9.60;;
9809;SDS011;4944;52.514;13.192;2022-12-18T07:18:30;14.40;;;9.37;;
9809;SDS011;4944;52.514;13.192;2022-12-18T07:20:57;17.60;;;9.60;;
9809;SDS011;4944;52.514;13.192;2022-12-18T07:23:24;17.33;;;10.20;;
9809;SDS011;4944;52.514;13.192;2022-12-18T07:25:51;17.37;;;9.50;;
9809;SDS011;4944;52.514;13.192;2022-12-18T07:28:19;17.70;;;9.47;;
9809;SDS011;4944;52.514;13.192;2022-12-18T07:30:46;20.53;;;10.00;;
9809;SDS011;4944;52.514;13.192;2022-12-18T07:33:13;15.67;;;9.70;;
9809;SDS011;4944;52.514;13.192;2022-12-18T07:35:39;20.53;;;10.67;;
9809;SDS011;4944;52.514;13.192;2022-12-18T07:38:07;16.37;;;9.67;;
9809;SDS011;4944;52.514;13.192;2022-12-18T07:40:34;17.30;;;9.47;;
9809;SDS011;4944;52.514;13.192;2022-12-18T07:43:01;18.43;;;9.97;;
9809;SDS011;4944;52.514;13.192;2022-12-18T07:45:32;19.37;;;10.60;;
9809;SDS011;4944;52.514;13.192;2022-12-18T07:47:59;20.13;;;10.67;;
9809;SDS011;4944;52.514;13.192;2022-12-18T07:50:26;15.10;;;9.67;;
9809;SDS011;4944;52.514;13.192;2022-12-18T07:52:53;18.40;;;10.47;;
9809;SDS011;4944;52.514;13.192;2022-12-18T07:55:20;17.53;;;10.13;;
9809;SDS011;4944;52.514;13.192;2022-12-18T07:57:46;20.43;;;10.87;;
9809;SDS011;4944;52.514;13.192;2022-12-18T08:00:14;18.43;;;10.97;;
9809;SDS011;4944;52.514;13.192;2022-12-18T08:02:42;18.33;;;10.80;;
9809;SDS011;4944;52.514;13.192;2022-12-18T08:05:09;20.77;;;11.47;;
9809;SDS011;4944;52.514;13.192;2022-12-18T08:07:36;24.90;;;12.40;;
9809;SDS011;4944;52.514;13.192;2022-12-18T08:10:04;24.73;;;12.87;;
9809;SDS011;4944;52.514;13.192;2022-12-18T08:12:31;26.10;;;13.33;;
9809;SDS011;4944;52.514;13.192;2022-12-18T08:14:58;26.70;;;13.37;;
9809;SDS011;4944;52.514;13.192;2022-12-18T08:17:25;28.23;;;14.67;;
9809;SDS011;4944;52.514;13.192;2022-12-18T08:19:53;29.73;;;14.07;;
9809;SDS011;4944;52.514;13.192;2022-12-18T08:22:20;29.93;;;14.90;;
9809;SDS011;4944;52.514;13.192;2022-12-18T08:24:47;29.13;;;14.47;;
9809;SDS011;4944;52.514;13.192;2022-12-18T08:27:14;29.50;;;14.80;;
9809;SDS011;4944;52.514;13.192;2022-12-18T08:29:41;30.63;;;14.93;;
9809;SDS011;4944;52.514;13.192;2022-12-18T08:32:08;31.20;;;14.83;;
9809;SDS011;4944;52.514;13.192;2022-12-18T08:34:36;27.97;;;13.57;;
9809;SDS011;4944;52.514;13.192;2022-12-18T08:37:04;26.13;;;14.40;;
9809;SDS011;4944;52.514;13.192;2022-12-18T08:39:31;31.67;;;19.67;;
9809;SDS011;4944;52.514;13.192;2022-12-18T08:41:59;28.10;;;14.80;;
9809;SDS011;4944;52.514;13.192;2022-12-18T08:44:43;23.57;;;13.13;;
9809;SDS011;4944;52.514;13.192;2022-12-18T08:47:10;25.80;;;12.93;;
9809;SDS011;4944;52.514;13.192;2022-12-18T08:49:37;23.97;;;12.40;;
9809;SDS011;4944;52.514;13.192;2022-12-18T08:52:05;20.43;;;11.47;;
9809;SDS011;4944;52.514;13.192;2022-12-18T08:54:32;17.07;;;10.20;;
9809;SDS011;4944;52.514;13.192;2022-12-18T08:56:59;19.37;;;10.13;;
9809;SDS011;4944;52.514;13.192;2022-12-18T08:59:29;20.00;;;10.27;;
9809;SDS011;4944;52.514;13.192;2022-12-18T09:01:56;17.43;;;10.33;;
9809;SDS011;4944;52.514;13.192;2022-12-18T09:04:22;21.90;;;11.57;;
9809;SDS011;4944;52.514;13.192;2022-12-18T09:06:49;19.80;;;10.70;;
9809;SDS011;4944;52.514;13.192;2022-12-18T09:09:18;18.53;;;10.80;;
9809;SDS011;4944;52.514;13.192;2022-12-18T09:11:44;20.13;;;10.57;;
9809;SDS011;4944;52.514;13.192;2022-12-18T09:14:11;18.03;;;10.93;;
9809;SDS011;4944;52.514;13.192;2022-12-18T09:16:38;19.07;;;10.70;;
9809;SDS011;4944;52.514;13.192;2022-12-18T09:19:05;15.50;;;9.80;;
9809;SDS011;4944;52.514;13.192;2022-12-18T09:21:32;20.10;;;10.67;;
9809;SDS011;4944;52.514;13.192;2022-12-18T09:24:00;18.37;;;10.67;;
9809;SDS011;4944;52.514;13.192;2022-12-18T09:26:29;16.53;;;10.13;;
9809;SDS011;4944;52.514;13.192;2022-12-18T09:28:55;19.30;;;11.40;;
9809;SDS011;4944;52.514;13.192;2022-12-18T09:31:23;17.47;;;10.30;;
9809;SDS011;4944;52.514;13.192;2022-12-18T09:33:50;16.93;;;10.30;;
9809;SDS011;4944;52.514;13.192;2022-12-18T09:36:17;17.57;;;9.97;;
9809;SDS011;4944;52.514;13.192;2022-12-18T09:38:44;15.80;;;10.37;;
9809;SDS011;4944;52.514;13.192;2022-12-18T09:41:22;17.07;;;10.53;;
9809;SDS011;4944;52.514;13.192;2022-12-18T09:44:11;21.13;;;10.80;;
9809;SDS011;4944;52.514;13.192;2022-12-18T09:46:49;18.70;;;10.70;;
9809;SDS011;4944;52.514;13.192;2022-12-18T09:49:22;20.73;;;11.33;;
9809;SDS011;4944;52.514;13.192;2022-12-18T09:51:52;17.33;;;10.13;;
9809;SDS011;4944;52.514;13.192;2022-12-18T09:54:24;16.67;;;10.50;;
9809;SDS011;4944;52.514;13.192;2022-12-18T09:56:57;18.07;;;9.87;;
9809;SDS011;4944;52.514;13.192;2022-12-18T09:59:25;19.20;;;10.50;;
9809;SDS011;4944;52.514;13.192;2022-12-18T10:01:58;20.43;;;10.57;;
9809;SDS011;4944;52.514;13.192;2022-12-18T10:04:25;18.53;;;10.33;;
9809;SDS011;4944;52.514;13.192;2022-12-18T10:06:57;18.63;;;10.53;;
9809;SDS011;4944;52.514;13.192;2022-12-18T10:09:30;21.83;;;11.17;;
9809;SDS011;4944;52.514;13.192;2022-12-18T10:12:07;25.03;;;12.43;;
9809;SDS011;4944;52.514;13.192;2022-12-18T10:14:41;23.00;;;12.50;;
9809;SDS011;4944;52.514;13.192;2022-12-18T10:17:17;23.10;;;12.33;;
9809;SDS011;4944;52.514;13.192;2022-12-18T10:19:52;25.40;;;12.97;;
9809;SDS011;4944;52.514;13.192;2022-12-18T10:22:26;23.50;;;11.83;;
9809;SDS011;4944;52.514;13.192;2022-12-18T10:25:04;22.30;;;12.37;;
9809;SDS011;4944;52.514;13.192;2022-12-18T10:27:46;22.20;;;12.27;;
9809;SDS011;4944;52.514;13.192;2022-12-18T10:30:15;19.77;;;11.77;;
9809;SDS011;4944;52.514;13.192;2022-12-18T10:32:43;25.43;;;12.80;;
9809;SDS011;4944;52.514;13.192;2022-12-18T10:35:11;21.33;;;11.17;;
9809;SDS011;4944;52.514;13.192;2022-12-18T10:40:31;22.13;;;12.03;;
9809;SDS011;4944;52.514;13.192;2022-12-18T10:43:10;25.40;;;12.70;;
9809;SDS011;4944;52.514;13.192;2022-12-18T10:45:39;20.53;;;12.23;;
9809;SDS011;4944;52.514;13.192;2022-12-18T10:48:17;22.40;;;12.37;;
9809;SDS011;4944;52.514;13.192;2022-12-18T10:50:46;22.63;;;12.80;;
9809;SDS011;4944;52.514;13.192;2022-12-18T10:53:18;22.57;;;12.03;;
9809;SDS011;4944;52.514;13.192;2022-12-18T10:55:47;19.53;;;11.53;;
9809;SDS011;4944;52.514;13.192;2022-12-18T10:58:19;20.90;;;11.53;;
9809;SDS011;4944;52.514;13.192;2022-12-18T11:03:37;15.97;;;9.90;;
9809;SDS011;4944;52.514;13.192;2022-12-18T11:06:06;18.63;;;11.07;;
9809;SDS011;4944;52.514;13.192;2022-12-18T11:08:35;16.80;;;9.93;;
9809;SDS011;4944;52.514;13.192;2022-12-18T11:11:02;12.90;;;9.63;;
9809;SDS011;4944;52.514;13.192;2022-12-18T11:13:42;14.53;;;9.10;;
9809;SDS011;4944;52.514;13.192;2022-12-18T11:16:28;13.87;;;9.07;;
9809;SDS011;4944;52.514;13.192;2022-12-18T11:19:07;13.87;;;8.97;;
9809;SDS011;4944;52.514;13.192;2022-12-18T11:21:39;13.70;;;8.63;;
9809;SDS011;4944;52.514;13.192;2022-12-18T11:24:13;15.47;;;9.73;;
9809;SDS011;4944;52.514;13.192;2022-12-18T11:26:46;14.17;;;8.67;;
9809;SDS011;4944;52.514;13.192;2022-12-18T11:29:17;11.67;;;7.93;;
9809;SDS011;4944;52.514;13.192;2022-12-18T11:31:49;12.73;;;8.13;;
9809;SDS011;4944;52.514;13.192;2022-12-18T11:34:16;15.37;;;9.23;;
9809;SDS011;4944;52.514;13.192;2022-12-18T11:36:48;14.67;;;8.47;;
9809;SDS011;4944;52.514;13.192;2022-12-18T11:39:17;12.80;;;9.03;;
9809;SDS011;4944;52.514;13.192;2022-12-18T11:41:48;13.80;;;9.00;;
9809;SDS011;4944;52.514;13.192;2022-12-18T11:44:40;15.23;;;8.50;;
9809;SDS011;4944;52.514;13.192;2022-12-18T11:47:13;13.33;;;8.30;;
9809;SDS011;4944;52.514;13.192;2022-12-18T11:49:48;15.33;;;9.10;;
9809;SDS011;4944;52.514;13.192;2022-12-18T11:52:16;14.70;;;9.60;;
9809;SDS011;4944;52.514;13.192;2022-12-18T11:54:47;14.27;;;9.13;;
9809;SDS011;4944;52.514;13.192;2022-12-18T11:57:20;13.37;;;9.67;;
9809;SDS011;4944;52.514;13.192;2022-12-18T12:00:02;17.40;;;8.87;;
9809;SDS011;4944;52.514;13.192;2022-12-18T12:02:41;13.03;;;8.67;;
9809;SDS011;4944;52.514;13.192;2022-12-18T12:05:28;16.03;;;10.33;;
9809;SDS011;4944;52.514;13.192;2022-12-18T12:08:05;16.40;;;9.23;;
9809;SDS011;4944;52.514;13.192;2022-12-18T12:10:41;16.07;;;9.67;;
9809;SDS011;4944;52.514;13.192;2022-12-18T12:13:18;18.20;;;9.93;;
9809;SDS011;4944;52.514;13.192;2022-12-18T12:15:58;14.83;;;9.57;;
9809;SDS011;4944;52.514;13.192;2022-12-18T12:18:35;15.23;;;9.27;;
9809;SDS011;4944;52.514;13.192;2022-12-18T12:21:14;15.47;;;9.43;;
9809;SDS011;4944;52.514;13.192;2022-12-18T12:23:51;15.20;;;9.47;;
9809;SDS011;4944;52.514;13.192;2022-12-18T12:26:23;15.60;;;9.73;;
9809;SDS011;4944;52.514;13.192;2022-12-18T12:28:59;15.87;;;9.47;;
9809;SDS011;4944;52.514;13.192;2022-12-18T12:31:41;17.77;;;9.87;;
9809;SDS011;4944;52.514;13.192;2022-12-18T12:34:23;14.13;;;9.60;;
9809;SDS011;4944;52.514;13.192;2022-12-18T12:37:02;11.57;;;8.83;;
9809;SDS011;4944;52.514;13.192;2022-12-18T12:39:39;14.03;;;9.47;;
9809;SDS011;4944;52.514;13.192;2022-12-18T12:42:10;15.23;;;9.67;;
9809;SDS011;4944;52.514;13.192;2022-12-18T12:44:59;13.67;;;9.07;;
9809;SDS011;4944;52.514;13.192;2022-12-18T12:47:35;14.97;;;8.93;;
9809;SDS011;4944;52.514;13.192;2022-12-18T12:50:11;14.90;;;9.87;;
9809;SDS011;4944;52.514;13.192;2022-12-18T12:52:40;14.47;;;9.90;;
9809;SDS011;4944;52.514;13.192;2022-12-18T12:55:12;14.70;;;9.83;;
9809;SDS011;4944;52.514;13.192;2022-12-18T12:57:45;15.17;;;9.80;;
9809;SDS011;4944;52.514;13.192;2022-12-18T13:00:15;16.23;;;9.67;;
9809;SDS011;4944;52.514;13.192;2022-12-18T13:02:47;15.03;;;9.83;;
9809;SDS011;4944;52.514;13.192;2022-12-18T13:05:19;15.93;;;9.60;;
9809;SDS011;4944;52.514;13.192;2022-12-18T13:07:52;17.00;;;10.10;;
9809;SDS011;4944;52.514;13.192;2022-12-18T13:10:25;16.50;;;10.40;;
9809;SDS011;4944;52.514;13.192;2022-12-18T13:12:58;16.77;;;10.90;;
9809;SDS011;4944;52.514;13.192;2022-12-18T13:15:27;14.90;;;10.00;;
9809;SDS011;4944;52.514;13.192;2022-12-18T13:18:06;17.63;;;10.57;;
9809;SDS011;4944;52.514;13.192;2022-12-18T13:20:41;18.90;;;9.97;;
9809;SDS011;4944;52.514;13.192;2022-12-18T13:23:19;16.13;;;9.77;;
9809;SDS011;4944;52.514;13.192;2022-12-18T13:25:58;15.00;;;9.30;;
9809;SDS011;4944;52.514;13.192;2022-12-18T13:34:19;15.03;;;9.50;;
9809;SDS011;4944;52.514;13.192;2022-12-18T13:36:47;15.97;;;9.80;;
9809;SDS011;4944;52.514;13.192;2022-12-18T13:39:22;17.73;;;10.50;;
9809;SDS011;4944;52.514;13.192;2022-12-18T13:41:51;18.67;;;10.53;;
9809;SDS011;4944;52.514;13.192;2022-12-18T13:44:24;14.77;;;9.87;;
9809;SDS011;4944;52.514;13.192;2022-12-18T13:46:57;14.33;;;9.10;;
9809;SDS011;4944;52.514;13.192;2022-12-18T13:49:27;15.47;;;10.10;;
9809;SDS011;4944;52.514;13.192;2022-12-18T13:52:02;15.83;;;10.30;;
9809;SDS011;4944;52.514;13.192;2022-12-18T13:54:40;13.43;;;9.70;;
9809;SDS011;4944;52.514;13.192;2022-12-18T13:57:24;15.10;;;9.97;;
9809;SDS011;4944;52.514;13.192;2022-12-18T13:59:52;14.83;;;10.47;;
9809;SDS011;4944;52.514;13.192;2022-12-18T14:02:21;14.57;;;9.60;;
9809;SDS011;4944;52.514;13.192;2022-12-18T14:04:51;13.47;;;9.83;;
9809;SDS011;4944;52.514;13.192;2022-12-18T14:07:19;16.67;;;9.90;;
9809;SDS011;4944;52.514;13.192;2022-12-18T14:09:49;12.77;;;9.40;;
9809;SDS011;4944;52.514;13.192;2022-12-18T14:12:19;14.77;;;10.23;;
9809;SDS011;4944;52.514;13.192;2022-12-18T14:15:06;14.07;;;9.63;;
9809;SDS011;4944;52.514;13.192;2022-12-18T14:17:43;17.20;;;10.60;;
9809;SDS011;4944;52.514;13.192;2022-12-18T14:20:14;16.57;;;10.10;;
9809;SDS011;4944;52.514;13.192;2022-12-18T14:22:42;16.07;;;10.93;;
9809;SDS011;4944;52.514;13.192;2022-12-18T14:25:15;13.37;;;9.10;;
9809;SDS011;4944;52.514;13.192;2022-12-18T14:27:45;16.97;;;10.60;;
9809;SDS011;4944;52.514;13.192;2022-12-18T14:30:23;17.00;;;10.77;;
9809;SDS011;4944;52.514;13.192;2022-12-18T14:33:01;19.03;;;10.70;;
9809;SDS011;4944;52.514;13.192;2022-12-18T14:35:31;14.67;;;10.07;;
9809;SDS011;4944;52.514;13.192;2022-12-18T14:38:11;14.57;;;10.13;;
9809;SDS011;4944;52.514;13.192;2022-12-18T14:40:47;16.47;;;11.00;;
9809;SDS011;4944;52.514;13.192;2022-12-18T14:43:17;18.50;;;11.43;;
9809;SDS011;4944;52.514;13.192;2022-12-18T14:45:44;19.30;;;12.00;;
9809;SDS011;4944;52.514;13.192;2022-12-18T14:48:14;19.83;;;11.53;;
9809;SDS011;4944;52.514;13.192;2022-12-18T14:50:45;18.77;;;12.13;;
9809;SDS011;4944;52.514;13.192;2022-12-18T14:53:23;19.63;;;13.03;;
9809;SDS011;4944;52.514;13.192;2022-12-18T14:55:54;28.60;;;16.23;;
9809;SDS011;4944;52.514;13.192;2022-12-18T14:58:22;27.27;;;15.07;;
9809;SDS011;4944;52.514;13.192;2022-12-18T15:00:49;23.67;;;14.07;;
9809;SDS011;4944;52.514;13.192;2022-12-18T15:03:17;26.50;;;14.43;;
9809;SDS011;4944;52.514;13.192;2022-12-18T15:05:47;27.57;;;15.87;;
9809;SDS011;4944;52.514;13.192;2022-12-18T15:08:26;28.23;;;15.70;;
9809;SDS011;4944;52.514;13.192;2022-12-18T15:10:55;27.20;;;15.60;;